Orange, New Jersey
Current Conditions -  °F | °C
As of 9:51 PM on Friday 31 Oct 2014 (Local Time) from KEWR Reporting Station
Overcast Overcast  
Wind Chill: 53°   Ceiling: 6000
Heat Index: 53°   Visibility: 10mi
Dew Point: 41°   Wind: 14mph
Humidity: 64%   Direction: 30°NNE
Pressure: 29.88"   Gusts: NA
Location:  40.77°N, 74.23°W
Report Text: KEWR 010151Z 03012KT 10SM FEW028 BKN060 OVC090 12/05 A2988 RMK AO2 SLP116 T01170050
Loading
Personal Weather Stations






























Interactive Weather Map
Tropical Storm Tracking
New forecast layout! Learn more

10-Day Weather Forecast

Advertisements
Track Severe Weather on mobile